sensor_id;sensor_type;location;lat;lon;timestamp;P1;durP1;ratioP1;P2;durP2;ratioP2
9374;SDS011;4727;51.202;6.344;2023-10-19T00:00:38;5.13;;;3.80;;
9374;SDS011;4727;51.202;6.344;2023-10-19T00:03:05;4.97;;;4.47;;
9374;SDS011;4727;51.202;6.344;2023-10-19T00:05:31;4.30;;;3.83;;
9374;SDS011;4727;51.202;6.344;2023-10-19T00:08:01;7.77;;;4.50;;
9374;SDS011;4727;51.202;6.344;2023-10-19T00:10:40;5.87;;;4.40;;
9374;SDS011;4727;51.202;6.344;2023-10-19T00:13:12;7.30;;;4.80;;
9374;SDS011;4727;51.202;6.344;2023-10-19T00:15:39;5.23;;;4.43;;
9374;SDS011;4727;51.202;6.344;2023-10-19T00:18:13;6.27;;;4.33;;
9374;SDS011;4727;51.202;6.344;2023-10-19T00:20:43;7.30;;;4.20;;
9374;SDS011;4727;51.202;6.344;2023-10-19T00:23:10;4.10;;;3.70;;
9374;SDS011;4727;51.202;6.344;2023-10-19T00:25:38;5.17;;;3.47;;
9374;SDS011;4727;51.202;6.344;2023-10-19T00:28:06;5.20;;;3.60;;
9374;SDS011;4727;51.202;6.344;2023-10-19T00:30:32;4.70;;;4.27;;
9374;SDS011;4727;51.202;6.344;2023-10-19T00:33:04;5.33;;;3.67;;
9374;SDS011;4727;51.202;6.344;2023-10-19T00:35:30;4.87;;;3.63;;
9374;SDS011;4727;51.202;6.344;2023-10-19T00:38:00;5.13;;;4.20;;
9374;SDS011;4727;51.202;6.344;2023-10-19T00:40:51;5.73;;;4.10;;
9374;SDS011;4727;51.202;6.344;2023-10-19T00:43:31;4.00;;;3.30;;
9374;SDS011;4727;51.202;6.344;2023-10-19T00:46:01;5.27;;;3.80;;
9374;SDS011;4727;51.202;6.344;2023-10-19T00:48:35;9.53;;;3.93;;
9374;SDS011;4727;51.202;6.344;2023-10-19T00:51:01;5.97;;;4.17;;
9374;SDS011;4727;51.202;6.344;2023-10-19T00:53:52;3.80;;;3.47;;
9374;SDS011;4727;51.202;6.344;2023-10-19T00:56:19;5.67;;;3.97;;
9374;SDS011;4727;51.202;6.344;2023-10-19T00:58:46;5.13;;;4.00;;
9374;SDS011;4727;51.202;6.344;2023-10-19T01:01:19;6.83;;;4.60;;
9374;SDS011;4727;51.202;6.344;2023-10-19T01:03:53;8.47;;;4.30;;
9374;SDS011;4727;51.202;6.344;2023-10-19T01:06:22;5.87;;;3.63;;
9374;SDS011;4727;51.202;6.344;2023-10-19T01:08:48;5.17;;;4.63;;
9374;SDS011;4727;51.202;6.344;2023-10-19T01:11:16;4.10;;;3.67;;
9374;SDS011;4727;51.202;6.344;2023-10-19T01:13:46;3.87;;;3.47;;
9374;SDS011;4727;51.202;6.344;2023-10-19T01:16:16;4.73;;;3.80;;
9374;SDS011;4727;51.202;6.344;2023-10-19T01:18:51;4.17;;;3.43;;
9374;SDS011;4727;51.202;6.344;2023-10-19T01:21:20;4.67;;;3.33;;
9374;SDS011;4727;51.202;6.344;2023-10-19T01:23:49;4.70;;;3.60;;
9374;SDS011;4727;51.202;6.344;2023-10-19T01:26:15;3.50;;;3.20;;
9374;SDS011;4727;51.202;6.344;2023-10-19T01:28:51;3.80;;;3.40;;
9374;SDS011;4727;51.202;6.344;2023-10-19T01:31:23;3.87;;;3.47;;
9374;SDS011;4727;51.202;6.344;2023-10-19T01:33:52;3.73;;;3.40;;
9374;SDS011;4727;51.202;6.344;2023-10-19T01:36:20;4.57;;;3.73;;
9374;SDS011;4727;51.202;6.344;2023-10-19T01:38:46;4.10;;;3.13;;
9374;SDS011;4727;51.202;6.344;2023-10-19T01:41:12;3.40;;;2.87;;
9374;SDS011;4727;51.202;6.344;2023-10-19T01:43:43;3.17;;;2.80;;
9374;SDS011;4727;51.202;6.344;2023-10-19T01:46:10;3.27;;;3.00;;
9374;SDS011;4727;51.202;6.344;2023-10-19T01:48:40;3.57;;;3.10;;
9374;SDS011;4727;51.202;6.344;2023-10-19T01:51:07;3.27;;;3.03;;
9374;SDS011;4727;51.202;6.344;2023-10-19T01:53:38;3.90;;;3.27;;
9374;SDS011;4727;51.202;6.344;2023-10-19T01:56:08;3.07;;;2.67;;
9374;SDS011;4727;51.202;6.344;2023-10-19T01:58:35;3.00;;;2.80;;
9374;SDS011;4727;51.202;6.344;2023-10-19T02:01:02;3.40;;;3.10;;
9374;SDS011;4727;51.202;6.344;2023-10-19T02:03:33;3.30;;;3.10;;
9374;SDS011;4727;51.202;6.344;2023-10-19T02:06:00;4.63;;;3.47;;
9374;SDS011;4727;51.202;6.344;2023-10-19T02:08:37;3.17;;;2.87;;
9374;SDS011;4727;51.202;6.344;2023-10-19T02:11:04;2.77;;;2.57;;
9374;SDS011;4727;51.202;6.344;2023-10-19T02:13:41;4.17;;;3.20;;
9374;SDS011;4727;51.202;6.344;2023-10-19T02:16:07;3.13;;;2.53;;
9374;SDS011;4727;51.202;6.344;2023-10-19T02:18:33;3.33;;;2.93;;
9374;SDS011;4727;51.202;6.344;2023-10-19T02:21:00;3.43;;;2.30;;
9374;SDS011;4727;51.202;6.344;2023-10-19T02:23:30;3.07;;;2.80;;
9374;SDS011;4727;51.202;6.344;2023-10-19T02:25:57;2.57;;;2.13;;
9374;SDS011;4727;51.202;6.344;2023-10-19T02:28:23;2.07;;;1.97;;
9374;SDS011;4727;51.202;6.344;2023-10-19T02:30:56;2.47;;;2.27;;
9374;SDS011;4727;51.202;6.344;2023-10-19T02:33:22;2.53;;;2.33;;
9374;SDS011;4727;51.202;6.344;2023-10-19T02:35:51;1.63;;;1.53;;
9374;SDS011;4727;51.202;6.344;2023-10-19T02:38:17;2.40;;;2.13;;
9374;SDS011;4727;51.202;6.344;2023-10-19T02:40:43;3.27;;;1.63;;
9374;SDS011;4727;51.202;6.344;2023-10-19T02:43:10;1.83;;;1.40;;
9374;SDS011;4727;51.202;6.344;2023-10-19T02:45:36;1.73;;;1.63;;
9374;SDS011;4727;51.202;6.344;2023-10-19T02:48:02;2.30;;;1.87;;
9374;SDS011;4727;51.202;6.344;2023-10-19T02:50:29;1.30;;;1.30;;
9374;SDS011;4727;51.202;6.344;2023-10-19T02:52:56;1.80;;;1.53;;
9374;SDS011;4727;51.202;6.344;2023-10-19T02:55:22;4.23;;;1.23;;
9374;SDS011;4727;51.202;6.344;2023-10-19T02:57:50;2.30;;;1.63;;
9374;SDS011;4727;51.202;6.344;2023-10-19T03:00:16;1.50;;;1.40;;
9374;SDS011;4727;51.202;6.344;2023-10-19T03:02:46;1.93;;;1.67;;
9374;SDS011;4727;51.202;6.344;2023-10-19T03:05:13;2.53;;;1.90;;
9374;SDS011;4727;51.202;6.344;2023-10-19T03:07:41;1.33;;;1.33;;
9374;SDS011;4727;51.202;6.344;2023-10-19T03:10:09;4.13;;;1.70;;
9374;SDS011;4727;51.202;6.344;2023-10-19T03:12:49;1.90;;;1.70;;
9374;SDS011;4727;51.202;6.344;2023-10-19T03:15:15;2.17;;;1.23;;
9374;SDS011;4727;51.202;6.344;2023-10-19T03:17:42;1.60;;;1.50;;
9374;SDS011;4727;51.202;6.344;2023-10-19T03:20:08;1.10;;;1.10;;
9374;SDS011;4727;51.202;6.344;2023-10-19T03:22:37;1.30;;;1.30;;
9374;SDS011;4727;51.202;6.344;2023-10-19T03:25:04;1.43;;;1.33;;
9374;SDS011;4727;51.202;6.344;2023-10-19T03:27:53;1.43;;;1.33;;
9374;SDS011;4727;51.202;6.344;2023-10-19T03:30:20;1.33;;;1.33;;
9374;SDS011;4727;51.202;6.344;2023-10-19T03:32:47;0.97;;;0.97;;
9374;SDS011;4727;51.202;6.344;2023-10-19T03:35:13;2.63;;;1.43;;
9374;SDS011;4727;51.202;6.344;2023-10-19T03:37:40;0.93;;;0.93;;
9374;SDS011;4727;51.202;6.344;2023-10-19T03:40:07;3.70;;;1.60;;
9374;SDS011;4727;51.202;6.344;2023-10-19T03:42:35;3.00;;;1.70;;
9374;SDS011;4727;51.202;6.344;2023-10-19T03:45:06;1.30;;;1.20;;
9374;SDS011;4727;51.202;6.344;2023-10-19T03:47:38;1.13;;;1.10;;
9374;SDS011;4727;51.202;6.344;2023-10-19T03:50:04;1.33;;;1.27;;
9374;SDS011;4727;51.202;6.344;2023-10-19T03:52:32;0.93;;;0.93;;
9374;SDS011;4727;51.202;6.344;2023-10-19T03:54:58;1.37;;;1.27;;
9374;SDS011;4727;51.202;6.344;2023-10-19T03:57:23;4.37;;;1.50;;
9374;SDS011;4727;51.202;6.344;2023-10-19T03:59:54;1.50;;;1.40;;
9374;SDS011;4727;51.202;6.344;2023-10-19T04:02:23;1.87;;;1.20;;
9374;SDS011;4727;51.202;6.344;2023-10-19T04:04:49;1.30;;;1.20;;
9374;SDS011;4727;51.202;6.344;2023-10-19T04:07:17;1.03;;;1.00;;
9374;SDS011;4727;51.202;6.344;2023-10-19T04:09:50;1.10;;;1.00;;
9374;SDS011;4727;51.202;6.344;2023-10-19T04:12:35;0.77;;;0.77;;
9374;SDS011;4727;51.202;6.344;2023-10-19T04:15:05;1.27;;;1.27;;
9374;SDS011;4727;51.202;6.344;2023-10-19T04:17:36;2.60;;;0.97;;
9374;SDS011;4727;51.202;6.344;2023-10-19T04:20:08;0.77;;;0.77;;
9374;SDS011;4727;51.202;6.344;2023-10-19T04:22:51;3.97;;;1.07;;
9374;SDS011;4727;51.202;6.344;2023-10-19T04:25:18;2.23;;;1.40;;
9374;SDS011;4727;51.202;6.344;2023-10-19T04:27:45;2.30;;;1.93;;
9374;SDS011;4727;51.202;6.344;2023-10-19T04:30:12;1.53;;;1.20;;
9374;SDS011;4727;51.202;6.344;2023-10-19T04:32:52;1.23;;;1.20;;
9374;SDS011;4727;51.202;6.344;2023-10-19T04:35:18;1.20;;;1.20;;
9374;SDS011;4727;51.202;6.344;2023-10-19T04:37:50;0.87;;;0.87;;
9374;SDS011;4727;51.202;6.344;2023-10-19T04:40:22;1.13;;;0.80;;
9374;SDS011;4727;51.202;6.344;2023-10-19T04:42:48;1.97;;;1.07;;
9374;SDS011;4727;51.202;6.344;2023-10-19T04:45:16;1.33;;;1.33;;
9374;SDS011;4727;51.202;6.344;2023-10-19T04:47:42;1.83;;;1.37;;
9374;SDS011;4727;51.202;6.344;2023-10-19T04:50:08;1.20;;;1.20;;
9374;SDS011;4727;51.202;6.344;2023-10-19T04:52:37;1.23;;;1.17;;
9374;SDS011;4727;51.202;6.344;2023-10-19T04:55:04;1.33;;;1.33;;
9374;SDS011;4727;51.202;6.344;2023-10-19T04:57:30;1.10;;;1.10;;
9374;SDS011;4727;51.202;6.344;2023-10-19T04:59:56;1.10;;;1.10;;
9374;SDS011;4727;51.202;6.344;2023-10-19T05:02:22;1.13;;;1.13;;
9374;SDS011;4727;51.202;6.344;2023-10-19T05:04:48;1.10;;;1.10;;
9374;SDS011;4727;51.202;6.344;2023-10-19T05:07:14;1.83;;;1.67;;
9374;SDS011;4727;51.202;6.344;2023-10-19T05:09:43;1.27;;;1.17;;
9374;SDS011;4727;51.202;6.344;2023-10-19T05:12:10;2.07;;;1.53;;
9374;SDS011;4727;51.202;6.344;2023-10-19T05:14:37;1.70;;;1.60;;
9374;SDS011;4727;51.202;6.344;2023-10-19T05:17:03;1.50;;;1.40;;
9374;SDS011;4727;51.202;6.344;2023-10-19T05:19:30;1.67;;;1.57;;
9374;SDS011;4727;51.202;6.344;2023-10-19T05:21:59;1.30;;;1.20;;
9374;SDS011;4727;51.202;6.344;2023-10-19T05:24:25;0.90;;;0.90;;
9374;SDS011;4727;51.202;6.344;2023-10-19T05:26:52;1.60;;;1.50;;
9374;SDS011;4727;51.202;6.344;2023-10-19T05:29:18;2.97;;;1.40;;
9374;SDS011;4727;51.202;6.344;2023-10-19T05:31:45;3.43;;;1.33;;
9374;SDS011;4727;51.202;6.344;2023-10-19T05:34:10;1.53;;;1.43;;
9374;SDS011;4727;51.202;6.344;2023-10-19T05:36:36;1.60;;;1.30;;
9374;SDS011;4727;51.202;6.344;2023-10-19T05:39:04;3.50;;;1.40;;
9374;SDS011;4727;51.202;6.344;2023-10-19T05:41:32;2.90;;;1.43;;
9374;SDS011;4727;51.202;6.344;2023-10-19T05:43:59;1.33;;;1.33;;
9374;SDS011;4727;51.202;6.344;2023-10-19T05:46:24;2.87;;;1.93;;
9374;SDS011;4727;51.202;6.344;2023-10-19T05:48:51;3.60;;;1.60;;
9374;SDS011;4727;51.202;6.344;2023-10-19T05:51:21;1.83;;;1.33;;
9374;SDS011;4727;51.202;6.344;2023-10-19T05:53:47;2.80;;;1.70;;
9374;SDS011;4727;51.202;6.344;2023-10-19T05:56:13;6.33;;;1.60;;
9374;SDS011;4727;51.202;6.344;2023-10-19T05:58:42;1.77;;;1.67;;
9374;SDS011;4727;51.202;6.344;2023-10-19T06:01:08;1.60;;;1.50;;
9374;SDS011;4727;51.202;6.344;2023-10-19T06:03:34;1.87;;;1.60;;
9374;SDS011;4727;51.202;6.344;2023-10-19T06:05:59;1.30;;;1.20;;
9374;SDS011;4727;51.202;6.344;2023-10-19T06:08:25;2.93;;;1.53;;
9374;SDS011;4727;51.202;6.344;2023-10-19T06:10:52;1.73;;;1.63;;
9374;SDS011;4727;51.202;6.344;2023-10-19T06:13:18;2.13;;;1.77;;
9374;SDS011;4727;51.202;6.344;2023-10-19T06:15:44;1.47;;;1.47;;
9374;SDS011;4727;51.202;6.344;2023-10-19T06:18:10;2.87;;;1.77;;
9374;SDS011;4727;51.202;6.344;2023-10-19T06:20:38;4.60;;;3.10;;
9374;SDS011;4727;51.202;6.344;2023-10-19T06:23:10;5.33;;;2.47;;
9374;SDS011;4727;51.202;6.344;2023-10-19T06:25:37;1.03;;;1.03;;
9374;SDS011;4727;51.202;6.344;2023-10-19T06:28:03;3.60;;;1.70;;
9374;SDS011;4727;51.202;6.344;2023-10-19T06:30:29;1.93;;;1.73;;
9374;SDS011;4727;51.202;6.344;2023-10-19T06:32:56;2.13;;;1.77;;
9374;SDS011;4727;51.202;6.344;2023-10-19T06:35:26;1.83;;;1.53;;
9374;SDS011;4727;51.202;6.344;2023-10-19T06:37:53;1.40;;;1.30;;
9374;SDS011;4727;51.202;6.344;2023-10-19T06:40:24;1.47;;;1.20;;
9374;SDS011;4727;51.202;6.344;2023-10-19T06:42:51;1.60;;;1.50;;
9374;SDS011;4727;51.202;6.344;2023-10-19T06:45:21;3.03;;;1.63;;
9374;SDS011;4727;51.202;6.344;2023-10-19T06:47:47;1.30;;;1.20;;
9374;SDS011;4727;51.202;6.344;2023-10-19T06:50:20;4.27;;;2.83;;
9374;SDS011;4727;51.202;6.344;2023-10-19T06:52:47;2.63;;;2.00;;
9374;SDS011;4727;51.202;6.344;2023-10-19T06:55:13;2.10;;;1.93;;
9374;SDS011;4727;51.202;6.344;2023-10-19T06:57:44;3.33;;;2.37;;
9374;SDS011;4727;51.202;6.344;2023-10-19T07:00:15;1.90;;;1.80;;
9374;SDS011;4727;51.202;6.344;2023-10-19T07:02:44;4.83;;;1.73;;
9374;SDS011;4727;51.202;6.344;2023-10-19T07:05:11;1.90;;;1.80;;
9374;SDS011;4727;51.202;6.344;2023-10-19T07:07:42;1.80;;;1.70;;
9374;SDS011;4727;51.202;6.344;2023-10-19T07:10:08;3.30;;;2.20;;
9374;SDS011;4727;51.202;6.344;2023-10-19T07:12:38;2.73;;;1.83;;
9374;SDS011;4727;51.202;6.344;2023-10-19T07:15:05;1.60;;;1.50;;
9374;SDS011;4727;51.202;6.344;2023-10-19T07:17:38;1.73;;;1.63;;
9374;SDS011;4727;51.202;6.344;2023-10-19T07:20:05;1.70;;;1.60;;
9374;SDS011;4727;51.202;6.344;2023-10-19T07:22:34;5.27;;;1.70;;
9374;SDS011;4727;51.202;6.344;2023-10-19T07:25:04;1.60;;;1.50;;
9374;SDS011;4727;51.202;6.344;2023-10-19T07:27:31;1.43;;;1.33;;
9374;SDS011;4727;51.202;6.344;2023-10-19T07:29:58;2.30;;;1.70;;
9374;SDS011;4727;51.202;6.344;2023-10-19T07:32:24;4.47;;;1.80;;
9374;SDS011;4727;51.202;6.344;2023-10-19T07:34:50;1.83;;;1.63;;
9374;SDS011;4727;51.202;6.344;2023-10-19T07:37:16;1.53;;;1.43;;
9374;SDS011;4727;51.202;6.344;2023-10-19T07:39:48;1.70;;;1.70;;
9374;SDS011;4727;51.202;6.344;2023-10-19T07:42:17;2.10;;;1.40;;
9374;SDS011;4727;51.202;6.344;2023-10-19T07:44:42;32.73;;;13.27;;
9374;SDS011;4727;51.202;6.344;2023-10-19T07:47:09;10.23;;;2.77;;
9374;SDS011;4727;51.202;6.344;2023-10-19T07:49:36;4.43;;;2.37;;
9374;SDS011;4727;51.202;6.344;2023-10-19T07:52:03;1.13;;;1.13;;
9374;SDS011;4727;51.202;6.344;2023-10-19T07:54:31;2.97;;;1.60;;
9374;SDS011;4727;51.202;6.344;2023-10-19T07:56:57;1.60;;;1.50;;
9374;SDS011;4727;51.202;6.344;2023-10-19T07:59:24;4.13;;;1.63;;
9374;SDS011;4727;51.202;6.344;2023-10-19T08:01:49;1.30;;;1.20;;
9374;SDS011;4727;51.202;6.344;2023-10-19T08:04:15;1.63;;;1.60;;
9374;SDS011;4727;51.202;6.344;2023-10-19T08:06:40;1.70;;;1.30;;
9374;SDS011;4727;51.202;6.344;2023-10-19T08:09:06;1.47;;;1.37;;
9374;SDS011;4727;51.202;6.344;2023-10-19T08:11:36;1.77;;;1.20;;
9374;SDS011;4727;51.202;6.344;2023-10-19T08:14:02;1.80;;;1.70;;
9374;SDS011;4727;51.202;6.344;2023-10-19T08:16:28;2.67;;;1.70;;
9374;SDS011;4727;51.202;6.344;2023-10-19T08:18:53;4.80;;;1.97;;
9374;SDS011;4727;51.202;6.344;2023-10-19T08:21:19;1.33;;;1.23;;
9374;SDS011;4727;51.202;6.344;2023-10-19T08:23:46;1.67;;;1.57;;
9374;SDS011;4727;51.202;6.344;2023-10-19T08:26:12;4.40;;;1.83;;
9374;SDS011;4727;51.202;6.344;2023-10-19T08:28:39;1.40;;;1.30;;
9374;SDS011;4727;51.202;6.344;2023-10-19T08:31:07;5.00;;;1.93;;
9374;SDS011;4727;51.202;6.344;2023-10-19T08:33:35;1.67;;;1.57;;
9374;SDS011;4727;51.202;6.344;2023-10-19T08:36:04;1.83;;;1.73;;
9374;SDS011;4727;51.202;6.344;2023-10-19T08:38:30;4.80;;;2.70;;
9374;SDS011;4727;51.202;6.344;2023-10-19T08:40:55;2.83;;;1.73;;
9374;SDS011;4727;51.202;6.344;2023-10-19T08:43:23;1.67;;;1.57;;
9374;SDS011;4727;51.202;6.344;2023-10-19T08:45:49;1.80;;;1.70;;
9374;SDS011;4727;51.202;6.344;2023-10-19T08:48:15;2.40;;;1.50;;
9374;SDS011;4727;51.202;6.344;2023-10-19T08:50:41;2.43;;;1.23;;
9374;SDS011;4727;51.202;6.344;2023-10-19T08:53:08;1.57;;;1.47;;
9374;SDS011;4727;51.202;6.344;2023-10-19T08:55:34;2.53;;;1.43;;
9374;SDS011;4727;51.202;6.344;2023-10-19T08:58:00;1.53;;;1.43;;
9374;SDS011;4727;51.202;6.344;2023-10-19T09:00:27;2.17;;;2.07;;
9374;SDS011;4727;51.202;6.344;2023-10-19T09:02:59;1.43;;;1.30;;
9374;SDS011;4727;51.202;6.344;2023-10-19T09:05:24;1.17;;;1.07;;
9374;SDS011;4727;51.202;6.344;2023-10-19T09:07:51;1.53;;;1.40;;
9374;SDS011;4727;51.202;6.344;2023-10-19T09:10:23;4.53;;;1.60;;
9374;SDS011;4727;51.202;6.344;2023-10-19T09:15:27;1.23;;;1.00;;
9374;SDS011;4727;51.202;6.344;2023-10-19T09:17:55;1.20;;;1.07;;
9374;SDS011;4727;51.202;6.344;2023-10-19T09:20:21;1.23;;;1.00;;
9374;SDS011;4727;51.202;6.344;2023-10-19T09:22:54;1.77;;;1.10;;
9374;SDS011;4727;51.202;6.344;2023-10-19T09:25:20;0.90;;;0.90;;
9374;SDS011;4727;51.202;6.344;2023-10-19T09:27:46;2.90;;;1.00;;
9374;SDS011;4727;51.202;6.344;2023-10-19T09:30:13;2.73;;;0.87;;
9374;SDS011;4727;51.202;6.344;2023-10-19T09:32:45;1.40;;;1.37;;
9374;SDS011;4727;51.202;6.344;2023-10-19T09:35:14;0.50;;;0.50;;
9374;SDS011;4727;51.202;6.344;2023-10-19T09:37:44;0.70;;;0.70;;
9374;SDS011;4727;51.202;6.344;2023-10-19T09:40:10;1.10;;;1.00;;
9374;SDS011;4727;51.202;6.344;2023-10-19T09:42:43;2.73;;;0.83;;
9374;SDS011;4727;51.202;6.344;2023-10-19T09:45:13;0.83;;;0.80;;
9374;SDS011;4727;51.202;6.344;2023-10-19T09:47:45;1.83;;;1.60;;
9374;SDS011;4727;51.202;6.344;2023-10-19T09:50:15;0.93;;;0.90;;
9374;SDS011;4727;51.202;6.344;2023-10-19T09:52:41;4.27;;;0.97;;
9374;SDS011;4727;51.202;6.344;2023-10-19T09:57:51;0.80;;;0.80;;
9374;SDS011;4727;51.202;6.344;2023-10-19T10:00:21;2.40;;;0.83;;
9374;SDS011;4727;51.202;6.344;2023-10-19T10:02:51;0.87;;;0.87;;
9374;SDS011;4727;51.202;6.344;2023-10-19T10:10:43;3.57;;;0.90;;
9374;SDS011;4727;51.202;6.344;2023-10-19T10:15:54;1.80;;;0.60;;
9374;SDS011;4727;51.202;6.344;2023-10-19T10:18:25;2.83;;;1.07;;
9374;SDS011;4727;51.202;6.344;2023-10-19T10:23:39;0.70;;;0.57;;
9374;SDS011;4727;51.202;6.344;2023-10-19T10:26:10;1.43;;;0.97;;
9374;SDS011;4727;51.202;6.344;2023-10-19T10:28:37;1.00;;;0.50;;
9374;SDS011;4727;51.202;6.344;2023-10-19T10:31:07;3.10;;;1.40;;
9374;SDS011;4727;51.202;6.344;2023-10-19T10:36:14;1.70;;;0.70;;
9374;SDS011;4727;51.202;6.344;2023-10-19T10:38:42;4.43;;;1.37;;
9374;SDS011;4727;51.202;6.344;2023-10-19T10:41:08;4.40;;;0.73;;
9374;SDS011;4727;51.202;6.344;2023-10-19T10:43:52;1.53;;;0.67;;
9374;SDS011;4727;51.202;6.344;2023-10-19T10:46:21;2.67;;;1.07;;
9374;SDS011;4727;51.202;6.344;2023-10-19T10:48:48;1.43;;;0.57;;
9374;SDS011;4727;51.202;6.344;2023-10-19T10:51:21;2.53;;;1.23;;
9374;SDS011;4727;51.202;6.344;2023-10-19T10:53:49;2.47;;;1.50;;
9374;SDS011;4727;51.202;6.344;2023-10-19T10:56:16;1.03;;;0.73;;
9374;SDS011;4727;51.202;6.344;2023-10-19T10:58:42;1.07;;;0.77;;
9374;SDS011;4727;51.202;6.344;2023-10-19T11:01:09;3.40;;;0.67;;
9374;SDS011;4727;51.202;6.344;2023-10-19T11:03:35;0.90;;;0.80;;
9374;SDS011;4727;51.202;6.344;2023-10-19T11:06:08;2.57;;;1.37;;
9374;SDS011;4727;51.202;6.344;2023-10-19T11:08:35;1.27;;;1.23;;
9374;SDS011;4727;51.202;6.344;2023-10-19T11:11:08;0.80;;;0.80;;
9374;SDS011;4727;51.202;6.344;2023-10-19T11:13:38;4.27;;;1.20;;
9374;SDS011;4727;51.202;6.344;2023-10-19T11:16:05;3.00;;;1.10;;
9374;SDS011;4727;51.202;6.344;2023-10-19T11:18:36;4.53;;;1.27;;
9374;SDS011;4727;51.202;6.344;2023-10-19T11:21:08;1.43;;;1.40;;
9374;SDS011;4727;51.202;6.344;2023-10-19T11:26:08;2.13;;;1.20;;
9374;SDS011;4727;51.202;6.344;2023-10-19T11:28:35;2.53;;;1.13;;
9374;SDS011;4727;51.202;6.344;2023-10-19T11:33:41;3.10;;;1.10;;
9374;SDS011;4727;51.202;6.344;2023-10-19T11:36:08;4.10;;;1.40;;
9374;SDS011;4727;51.202;6.344;2023-10-19T11:38:37;0.70;;;0.70;;
9374;SDS011;4727;51.202;6.344;2023-10-19T11:41:12;2.70;;;0.90;;
9374;SDS011;4727;51.202;6.344;2023-10-19T11:43:39;3.10;;;1.50;;
9374;SDS011;4727;51.202;6.344;2023-10-19T11:46:06;1.27;;;1.17;;
9374;SDS011;4727;51.202;6.344;2023-10-19T11:48:33;2.30;;;0.73;;
9374;SDS011;4727;51.202;6.344;2023-10-19T11:50:59;0.70;;;0.70;;
9374;SDS011;4727;51.202;6.344;2023-10-19T11:53:28;1.80;;;1.23;;
9374;SDS011;4727;51.202;6.344;2023-10-19T11:55:58;1.27;;;0.80;;
9374;SDS011;4727;51.202;6.344;2023-10-19T11:58:35;3.70;;;1.37;;
9374;SDS011;4727;51.202;6.344;2023-10-19T12:01:02;5.13;;;1.23;;
9374;SDS011;4727;51.202;6.344;2023-10-19T12:03:34;2.03;;;0.93;;
9374;SDS011;4727;51.202;6.344;2023-10-19T12:06:04;3.90;;;1.27;;
9374;SDS011;4727;51.202;6.344;2023-10-19T12:08:36;2.03;;;1.17;;
9374;SDS011;4727;51.202;6.344;2023-10-19T12:11:03;2.03;;;0.67;;
9374;SDS011;4727;51.202;6.344;2023-10-19T12:13:30;1.40;;;1.30;;
9374;SDS011;4727;51.202;6.344;2023-10-19T12:15:57;1.40;;;1.30;;
9374;SDS011;4727;51.202;6.344;2023-10-19T12:18:26;1.67;;;1.57;;
9374;SDS011;4727;51.202;6.344;2023-10-19T12:20:53;0.80;;;0.80;;
9374;SDS011;4727;51.202;6.344;2023-10-19T12:23:24;3.83;;;1.47;;
9374;SDS011;4727;51.202;6.344;2023-10-19T12:25:50;4.00;;;1.30;;
9374;SDS011;4727;51.202;6.344;2023-10-19T12:28:16;1.70;;;1.07;;
9374;SDS011;4727;51.202;6.344;2023-10-19T12:30:43;3.73;;;1.47;;
9374;SDS011;4727;51.202;6.344;2023-10-19T12:33:08;1.60;;;1.07;;
9374;SDS011;4727;51.202;6.344;2023-10-19T12:35:38;3.57;;;1.93;;
9374;SDS011;4727;51.202;6.344;2023-10-19T12:38:10;0.90;;;0.90;;
9374;SDS011;4727;51.202;6.344;2023-10-19T12:40:42;1.07;;;1.07;;
9374;SDS011;4727;51.202;6.344;2023-10-19T12:43:09;1.10;;;1.10;;
9374;SDS011;4727;51.202;6.344;2023-10-19T12:45:35;5.00;;;1.43;;
9374;SDS011;4727;51.202;6.344;2023-10-19T12:48:05;2.53;;;1.73;;
9374;SDS011;4727;51.202;6.344;2023-10-19T12:50:31;2.63;;;1.23;;
9374;SDS011;4727;51.202;6.344;2023-10-19T12:52:59;3.60;;;1.47;;
9374;SDS011;4727;51.202;6.344;2023-10-19T12:55:25;1.73;;;1.63;;
9374;SDS011;4727;51.202;6.344;2023-10-19T12:57:52;2.40;;;1.30;;
9374;SDS011;4727;51.202;6.344;2023-10-19T13:00:18;1.50;;;1.23;;
9374;SDS011;4727;51.202;6.344;2023-10-19T13:03:01;2.97;;;1.30;;
9374;SDS011;4727;51.202;6.344;2023-10-19T13:05:32;2.00;;;1.03;;
9374;SDS011;4727;51.202;6.344;2023-10-19T13:07:59;2.73;;;0.97;;
9374;SDS011;4727;51.202;6.344;2023-10-19T13:10:28;1.20;;;1.00;;
9374;SDS011;4727;51.202;6.344;2023-10-19T13:13:00;1.87;;;1.30;;
9374;SDS011;4727;51.202;6.344;2023-10-19T13:15:34;3.13;;;1.53;;
9374;SDS011;4727;51.202;6.344;2023-10-19T13:18:03;1.50;;;1.50;;
9374;SDS011;4727;51.202;6.344;2023-10-19T13:20:34;2.93;;;1.60;;
9374;SDS011;4727;51.202;6.344;2023-10-19T13:23:02;2.53;;;2.07;;
9374;SDS011;4727;51.202;6.344;2023-10-19T13:25:32;3.60;;;2.20;;
9374;SDS011;4727;51.202;6.344;2023-10-19T13:28:07;5.53;;;2.17;;
9374;SDS011;4727;51.202;6.344;2023-10-19T13:30:39;3.90;;;1.53;;
9374;SDS011;4727;51.202;6.344;2023-10-19T13:33:09;3.77;;;1.83;;
9374;SDS011;4727;51.202;6.344;2023-10-19T13:35:38;3.43;;;1.00;;
9374;SDS011;4727;51.202;6.344;2023-10-19T13:38:05;2.23;;;1.70;;
9374;SDS011;4727;51.202;6.344;2023-10-19T13:40:33;0.90;;;0.90;;
9374;SDS011;4727;51.202;6.344;2023-10-19T13:43:03;1.10;;;1.00;;
9374;SDS011;4727;51.202;6.344;2023-10-19T13:45:31;1.70;;;0.90;;
9374;SDS011;4727;51.202;6.344;2023-10-19T13:47:58;3.20;;;1.33;;
9374;SDS011;4727;51.202;6.344;2023-10-19T13:50:24;1.67;;;1.10;;
9374;SDS011;4727;51.202;6.344;2023-10-19T13:52:51;2.93;;;1.30;;
9374;SDS011;4727;51.202;6.344;2023-10-19T13:55:17;3.70;;;1.20;;
9374;SDS011;4727;51.202;6.344;2023-10-19T13:57:45;2.50;;;1.33;;
9374;SDS011;4727;51.202;6.344;2023-10-19T14:00:14;2.23;;;1.20;;
9374;SDS011;4727;51.202;6.344;2023-10-19T14:02:55;1.60;;;1.20;;
9374;SDS011;4727;51.202;6.344;2023-10-19T14:05:25;3.77;;;1.30;;
9374;SDS011;4727;51.202;6.344;2023-10-19T14:07:51;3.67;;;1.43;;
9374;SDS011;4727;51.202;6.344;2023-10-19T14:10:17;1.40;;;1.17;;
9374;SDS011;4727;51.202;6.344;2023-10-19T14:12:46;4.10;;;1.40;;
9374;SDS011;4727;51.202;6.344;2023-10-19T14:15:20;1.37;;;1.27;;
9374;SDS011;4727;51.202;6.344;2023-10-19T14:17:46;3.27;;;1.10;;
9374;SDS011;4727;51.202;6.344;2023-10-19T14:20:13;1.83;;;1.23;;
9374;SDS011;4727;51.202;6.344;2023-10-19T14:25:10;5.37;;;1.23;;
9374;SDS011;4727;51.202;6.344;2023-10-19T14:27:43;2.67;;;1.07;;
9374;SDS011;4727;51.202;6.344;2023-10-19T14:30:10;1.93;;;1.03;;
9374;SDS011;4727;51.202;6.344;2023-10-19T14:32:42;2.00;;;1.20;;
9374;SDS011;4727;51.202;6.344;2023-10-19T14:35:13;1.23;;;1.13;;
9374;SDS011;4727;51.202;6.344;2023-10-19T14:37:41;2.43;;;1.77;;
9374;SDS011;4727;51.202;6.344;2023-10-19T14:40:11;0.90;;;0.90;;
9374;SDS011;4727;51.202;6.344;2023-10-19T14:42:39;2.27;;;1.20;;
9374;SDS011;4727;51.202;6.344;2023-10-19T14:47:40;4.43;;;1.77;;
9374;SDS011;4727;51.202;6.344;2023-10-19T14:52:36;1.60;;;1.50;;
9374;SDS011;4727;51.202;6.344;2023-10-19T14:55:05;4.97;;;1.33;;
9374;SDS011;4727;51.202;6.344;2023-10-19T14:57:34;2.13;;;1.60;;
9374;SDS011;4727;51.202;6.344;2023-10-19T15:00:02;2.57;;;1.83;;
9374;SDS011;4727;51.202;6.344;2023-10-19T15:02:40;3.33;;;1.67;;
9374;SDS011;4727;51.202;6.344;2023-10-19T15:05:10;5.10;;;1.57;;
9374;SDS011;4727;51.202;6.344;2023-10-19T15:07:48;1.50;;;1.40;;
9374;SDS011;4727;51.202;6.344;2023-10-19T15:10:24;4.20;;;1.20;;
9374;SDS011;4727;51.202;6.344;2023-10-19T15:12:54;1.40;;;1.10;;
9374;SDS011;4727;51.202;6.344;2023-10-19T15:15:24;1.53;;;1.43;;
9374;SDS011;4727;51.202;6.344;2023-10-19T15:17:50;3.63;;;1.60;;
9374;SDS011;4727;51.202;6.344;2023-10-19T15:20:18;1.07;;;1.07;;
9374;SDS011;4727;51.202;6.344;2023-10-19T15:22:44;1.17;;;1.17;;
9374;SDS011;4727;51.202;6.344;2023-10-19T15:25:11;5.57;;;1.23;;
9374;SDS011;4727;51.202;6.344;2023-10-19T15:27:38;0.90;;;0.90;;
9374;SDS011;4727;51.202;6.344;2023-10-19T15:30:07;1.23;;;1.17;;
9374;SDS011;4727;51.202;6.344;2023-10-19T15:32:34;3.90;;;1.60;;
9374;SDS011;4727;51.202;6.344;2023-10-19T15:35:00;1.00;;;1.00;;
9374;SDS011;4727;51.202;6.344;2023-10-19T15:37:26;0.90;;;0.90;;
9374;SDS011;4727;51.202;6.344;2023-10-19T15:39:52;1.30;;;1.20;;
9374;SDS011;4727;51.202;6.344;2023-10-19T15:42:18;2.90;;;2.10;;
9374;SDS011;4727;51.202;6.344;2023-10-19T15:44:46;1.83;;;1.30;;
9374;SDS011;4727;51.202;6.344;2023-10-19T15:47:13;1.57;;;1.47;;
9374;SDS011;4727;51.202;6.344;2023-10-19T15:49:46;2.70;;;1.67;;
9374;SDS011;4727;51.202;6.344;2023-10-19T15:52:21;2.53;;;1.87;;
9374;SDS011;4727;51.202;6.344;2023-10-19T15:54:51;1.97;;;1.80;;